createdAt,value
2022-11-25T00:03:49.990Z,100352.52
2022-11-25T00:13:54.548Z,100350.88
2022-11-25T00:24:01.336Z,100355.27
2022-11-25T00:34:04.990Z,100369.69
2022-11-25T00:44:29.578Z,100375.40
2022-11-25T00:54:34.005Z,100372.96
2022-11-25T01:04:37.954Z,100380.81
2022-11-25T01:14:41.500Z,100383.60
2022-11-25T01:24:44.556Z,100381.77
2022-11-25T01:34:47.690Z,100395.76
2022-11-25T01:45:19.017Z,100400.20
2022-11-25T01:55:30.956Z,100402.05
2022-11-25T02:06:22.618Z,100399.29
2022-11-25T02:16:26.424Z,100408.34
2022-11-25T02:26:31.303Z,100411.33
2022-11-25T02:36:34.914Z,100411.59
2022-11-25T02:46:38.068Z,100409.39
2022-11-25T02:56:41.497Z,100408.86
2022-11-25T03:06:45.102Z,100408.25
2022-11-25T03:16:48.274Z,100415.99
2022-11-25T03:26:51.562Z,100420.38
2022-11-25T03:36:55.108Z,100428.27
2022-11-25T03:46:59.771Z,100431.08
2022-11-25T03:57:03.263Z,100445.96
2022-11-25T04:07:09.530Z,100445.61
2022-11-25T04:17:12.784Z,100448.63
2022-11-25T04:27:16.167Z,100458.29
2022-11-25T04:37:19.447Z,100462.16
2022-11-25T04:47:23.216Z,100475.90
2022-11-25T04:57:26.425Z,100483.46
2022-11-25T05:07:29.945Z,100482.27
2022-11-25T05:17:33.886Z,100491.55
2022-11-25T05:27:37.205Z,100499.27
2022-11-25T05:37:45.070Z,100507.34
2022-11-25T05:47:48.956Z,100515.77
2022-11-25T05:57:54.785Z,100519.10
2022-11-25T06:07:58.221Z,100523.16
2022-11-25T06:18:02.415Z,100527.31
2022-11-25T06:28:13.899Z,100533.45
2022-11-25T06:38:20.772Z,100532.08
2022-11-25T06:48:23.989Z,100534.10
2022-11-25T06:58:35.831Z,100544.66
2022-11-25T07:08:39.668Z,100551.48
2022-11-25T07:18:43.158Z,100553.89
2022-11-25T07:28:46.209Z,100556.46
2022-11-25T07:38:49.470Z,100561.36
2022-11-25T07:48:54.010Z,100570.98
2022-11-25T07:58:57.608Z,100575.35
2022-11-25T08:09:00.861Z,100576.86
2022-11-25T08:19:07.160Z,100586.66
2022-11-25T08:29:13.592Z,100597.71
2022-11-25T08:49:42.321Z,100607.65
2022-11-25T08:59:45.670Z,100615.58
2022-11-25T09:09:49.893Z,100618.58
2022-11-25T09:19:53.403Z,100619.27
2022-11-25T09:29:56.491Z,100621.85
2022-11-25T09:39:59.635Z,100622.18
2022-11-25T09:50:27.733Z,100628.74
2022-11-25T10:00:51.702Z,100632.95
2022-11-25T10:11:03.891Z,100635.46
2022-11-25T10:21:10.523Z,100638.86
2022-11-25T10:31:27.263Z,100642.79
2022-11-25T10:42:03.691Z,100648.57
2022-11-25T10:52:12.281Z,100646.10
2022-11-25T11:02:28.316Z,100657.39
2022-11-25T11:12:33.046Z,100658.27
2022-11-25T11:22:44.781Z,100658.98
2022-11-25T11:33:28.121Z,100658.01
2022-11-25T11:43:54.597Z,100662.83
2022-11-25T11:54:10.251Z,100665.22
2022-11-25T12:04:20.273Z,100662.59
2022-11-25T12:14:44.261Z,100668.52
2022-11-25T12:25:01.306Z,100661.77
2022-11-25T12:35:10.875Z,100670.64
2022-11-25T12:45:25.964Z,100675.49
2022-11-25T12:55:30.370Z,100675.48
2022-11-25T13:06:16.462Z,100677.02
2022-11-25T13:16:21.048Z,100679.71
2022-11-25T13:37:47.871Z,100680.86
2022-11-25T13:47:51.183Z,100684.96
2022-11-25T13:58:41.758Z,100695.36
2022-11-25T14:09:10.592Z,100702.52
2022-11-25T14:20:00.589Z,100702.11
2022-11-25T14:30:17.656Z,100701.11
2022-11-25T14:40:27.455Z,100711.98
2022-11-25T14:50:35.121Z,100718.75
2022-11-25T15:01:57.158Z,100719.81
2022-11-25T15:12:47.188Z,100726.52
2022-11-25T15:45:43.190Z,100741.36
2022-11-25T15:55:46.473Z,100742.98
2022-11-25T16:05:57.305Z,100748.14
2022-11-25T16:16:15.955Z,100747.33
2022-11-25T16:26:32.448Z,100746.23
2022-11-25T16:36:35.647Z,100753.57
2022-11-25T16:46:38.892Z,100756.45
2022-11-25T16:56:43.762Z,100761.60
2022-11-25T17:07:09.808Z,100764.06
2022-11-25T17:17:24.449Z,100766.81
2022-11-25T17:27:31.259Z,100767.51
2022-11-25T17:37:34.337Z,100766.75
2022-11-25T17:47:37.416Z,100773.39
2022-11-25T17:57:40.609Z,100776.52
2022-11-25T18:07:46.836Z,100782.14
2022-11-25T18:17:51.699Z,100786.99
2022-11-25T18:27:57.056Z,100787.86
2022-11-25T18:38:00.444Z,100788.61
2022-11-25T18:48:14.839Z,100799.85
2022-11-25T18:58:23.863Z,100800.98
2022-11-25T19:08:27.494Z,100804.79
2022-11-25T19:18:30.762Z,100807.65
2022-11-25T19:28:34.488Z,100811.34
2022-11-25T19:38:37.618Z,100819.30
2022-11-25T19:48:40.839Z,100832.89
2022-11-25T19:58:44.152Z,100840.56
2022-11-25T20:08:47.560Z,100851.00
2022-11-25T20:18:53.163Z,100859.34
2022-11-25T20:28:56.330Z,100872.27
2022-11-25T20:39:01.916Z,100877.86
2022-11-25T20:49:21.044Z,100877.26
2022-11-25T20:59:24.429Z,100882.05
2022-11-25T21:09:35.114Z,100888.39
2022-11-25T21:19:38.466Z,100895.14
2022-11-25T21:29:43.549Z,100887.85
2022-11-25T21:39:46.818Z,100891.09
2022-11-25T21:49:50.931Z,100897.11
2022-11-25T21:59:54.452Z,100897.98
2022-11-25T22:09:57.502Z,100905.88
2022-11-25T22:20:00.962Z,100914.80
2022-11-25T22:30:05.763Z,100925.02
2022-11-25T22:40:09.010Z,100932.77
2022-11-25T22:50:20.795Z,100946.11
2022-11-25T23:00:31.672Z,100954.98
2022-11-25T23:10:34.942Z,100957.08
2022-11-25T23:20:39.836Z,100954.61
2022-11-25T23:30:58.943Z,100959.68
2022-11-25T23:41:02.075Z,100961.61
2022-11-25T23:51:06.474Z,100965.38
